createdAt,value
2023-02-22T00:00:51.960Z,0.09
2023-02-22T00:01:52.702Z,0.09
2023-02-22T00:02:53.322Z,0.09
2023-02-22T00:03:02.385Z,0.09
2023-02-22T00:04:03.158Z,0.09
2023-02-22T00:05:03.818Z,0.09
2023-02-22T00:06:04.381Z,0.09
2023-02-22T00:07:04.501Z,0.09
2023-02-22T00:08:05.174Z,0.09
2023-02-22T00:09:06.089Z,0.09
2023-02-22T00:10:06.864Z,0.09
2023-02-22T00:11:07.593Z,0.09
2023-02-22T00:12:08.285Z,0.09
2023-02-22T00:13:08.493Z,0.09
2023-02-22T00:14:09.138Z,0.09
2023-02-22T00:15:09.899Z,0.09
2023-02-22T00:16:10.272Z,0.09
2023-02-22T00:17:11.115Z,0.09
2023-02-22T00:18:11.790Z,0.09
2023-02-22T00:19:12.162Z,0.09
2023-02-22T00:20:12.640Z,0.09
2023-02-22T00:21:13.469Z,0.09
2023-02-22T00:22:14.212Z,0.09
2023-02-22T00:23:14.298Z,0.09
2023-02-22T00:24:15.056Z,0.09
2023-02-22T00:25:15.729Z,0.09
2023-02-22T00:26:15.932Z,0.09
2023-02-22T00:27:16.712Z,0.09
2023-02-22T00:28:17.434Z,0.09
2023-02-22T00:29:18.273Z,0.09
2023-02-22T00:30:19.311Z,0.09
2023-02-22T00:31:20.474Z,0.09
2023-02-22T00:32:20.954Z,0.13
2023-02-22T00:33:21.535Z,0.09
2023-02-22T00:34:22.218Z,0.13
2023-02-22T00:35:23.018Z,0.13
2023-02-22T00:36:23.600Z,0.09
2023-02-22T00:37:24.277Z,0.09
2023-02-22T00:38:25.111Z,0.09
2023-02-22T00:38:33.823Z,0.09
2023-02-22T00:39:34.423Z,0.09
2023-02-22T00:40:35.265Z,0.09
2023-02-22T00:41:35.348Z,0.09
2023-02-22T00:42:35.918Z,0.09
2023-02-22T00:43:36.716Z,0.09
2023-02-22T00:44:37.521Z,0.09
2023-02-22T00:45:38.237Z,0.09
2023-02-22T00:46:38.377Z,0.09
2023-02-22T00:47:39.066Z,0.09
2023-02-22T00:48:39.812Z,0.09
2023-02-22T00:49:40.135Z,0.09
2023-02-22T00:50:40.890Z,0.09
2023-02-22T00:51:41.797Z,0.09
2023-02-22T00:52:42.608Z,0.09
2023-02-22T00:53:42.861Z,0.09
2023-02-22T00:54:42.985Z,0.09
2023-02-22T00:55:43.830Z,0.09
2023-02-22T00:56:44.234Z,0.09
2023-02-22T00:57:44.812Z,0.09
2023-02-22T00:58:45.642Z,0.09
2023-02-22T00:59:46.252Z,0.09
2023-02-22T01:00:47.112Z,0.09
2023-02-22T01:01:47.951Z,0.09
2023-02-22T01:02:48.011Z,0.09
2023-02-22T01:03:48.785Z,0.09
2023-02-22T01:04:49.537Z,0.09
2023-02-22T01:05:50.275Z,0.09
2023-02-22T01:06:50.893Z,0.09
2023-02-22T01:07:51.549Z,0.09
2023-02-22T01:08:52.520Z,0.09
2023-02-22T01:09:53.389Z,0.09
2023-02-22T01:10:53.520Z,0.09
2023-02-22T01:11:54.252Z,0.09
2023-02-22T01:12:55.014Z,0.09
2023-02-22T01:13:55.236Z,0.09
2023-02-22T01:14:03.900Z,0.09
2023-02-22T01:15:04.279Z,0.09
2023-02-22T01:16:04.887Z,0.09
2023-02-22T01:17:05.037Z,0.09
2023-02-22T01:18:05.752Z,0.09
2023-02-22T01:19:05.821Z,0.09
2023-02-22T01:20:06.474Z,0.09
2023-02-22T01:21:07.125Z,0.09
2023-02-22T01:22:07.982Z,0.09
2023-02-22T01:23:08.684Z,0.09
2023-02-22T01:24:09.391Z,0.09
2023-02-22T01:25:09.996Z,0.09
2023-02-22T01:26:10.637Z,0.09
2023-02-22T01:27:10.995Z,0.09
2023-02-22T01:28:11.676Z,0.09
2023-02-22T01:29:11.736Z,0.09
2023-02-22T01:30:12.037Z,0.09
2023-02-22T01:31:12.541Z,0.09
2023-02-22T01:32:13.424Z,0.09
2023-02-22T01:33:13.602Z,0.09
2023-02-22T01:34:14.570Z,0.09
2023-02-22T01:35:15.328Z,0.09
2023-02-22T01:36:16.063Z,0.09
2023-02-22T01:37:16.205Z,0.09
2023-02-22T01:38:17.143Z,0.09
2023-02-22T01:39:18.040Z,0.09
2023-02-22T01:40:18.702Z,0.09
2023-02-22T01:41:19.461Z,0.09
2023-02-22T01:42:20.024Z,0.09
2023-02-22T01:43:20.616Z,0.09
2023-02-22T01:44:21.425Z,0.09
2023-02-22T01:45:22.101Z,0.09
2023-02-22T01:46:22.627Z,0.09
2023-02-22T01:47:23.155Z,0.09
2023-02-22T01:47:31.859Z,0.09
2023-02-22T01:48:32.449Z,0.09
2023-02-22T01:49:33.064Z,0.09
2023-02-22T01:50:33.928Z,0.09
2023-02-22T01:51:34.884Z,0.09
2023-02-22T01:52:35.356Z,0.09
2023-02-22T01:53:35.544Z,0.09
2023-02-22T01:54:36.278Z,0.09
2023-02-22T01:55:36.262Z,0.09
2023-02-22T01:56:36.621Z,0.09
2023-02-22T01:57:37.136Z,0.09
2023-02-22T01:58:37.798Z,0.09
2023-02-22T01:59:38.584Z,0.09
2023-02-22T02:00:38.585Z,0.09
2023-02-22T02:01:39.427Z,0.13
2023-02-22T02:02:40.126Z,0.09
2023-02-22T02:03:40.760Z,0.09
2023-02-22T02:04:41.186Z,0.09
2023-02-22T02:05:42.300Z,0.09
2023-02-22T02:06:42.687Z,0.09
2023-02-22T02:07:43.492Z,0.09
2023-02-22T02:08:44.323Z,0.09
2023-02-22T02:09:44.656Z,0.09
2023-02-22T02:10:45.350Z,0.09
2023-02-22T02:11:46.230Z,0.09
2023-02-22T02:12:46.955Z,0.09
2023-02-22T02:13:47.058Z,0.09
2023-02-22T02:14:47.843Z,0.09
2023-02-22T02:15:48.551Z,0.13
2023-02-22T02:16:49.348Z,0.09
2023-02-22T02:17:49.917Z,0.09
2023-02-22T02:18:50.640Z,0.09
2023-02-22T02:19:51.426Z,0.09
2023-02-22T02:20:52.194Z,0.09
2023-02-22T02:21:52.893Z,0.09
2023-02-22T02:22:52.928Z,0.09
2023-02-22T02:23:02.655Z,0.09
2023-02-22T02:24:03.292Z,0.09
2023-02-22T02:25:04.198Z,0.09
2023-02-22T02:26:04.896Z,0.09
2023-02-22T02:27:05.721Z,0.09
2023-02-22T02:28:05.736Z,0.09
2023-02-22T02:29:06.591Z,0.09
2023-02-22T02:30:07.588Z,0.09
2023-02-22T02:31:08.242Z,0.09
2023-02-22T02:32:08.646Z,0.09
2023-02-22T02:33:09.283Z,0.13
2023-02-22T02:34:09.905Z,0.09
2023-02-22T02:35:10.528Z,0.13
2023-02-22T02:36:11.154Z,0.09
2023-02-22T02:37:12.094Z,0.09
2023-02-22T02:38:12.396Z,0.09
2023-02-22T02:39:12.670Z,0.09
2023-02-22T02:40:13.510Z,0.09
2023-02-22T02:41:14.635Z,0.09
2023-02-22T02:42:15.194Z,0.09
2023-02-22T02:43:15.890Z,0.09
2023-02-22T02:44:16.107Z,0.09
2023-02-22T02:45:16.431Z,0.09
2023-02-22T02:46:17.424Z,0.09
2023-02-22T02:47:17.532Z,0.09
2023-02-22T02:48:17.774Z,0.09
2023-02-22T02:49:18.521Z,0.09
2023-02-22T02:50:18.737Z,0.09
2023-02-22T02:51:19.003Z,0.09
2023-02-22T02:52:20.917Z,0.09
2023-02-22T02:53:19.786Z,0.09
2023-02-22T02:54:20.799Z,0.09
2023-02-22T02:55:21.405Z,0.09
2023-02-22T02:56:22.208Z,0.09
2023-02-22T02:57:22.995Z,0.09
2023-02-22T02:57:31.684Z,0.09
2023-02-22T02:58:32.337Z,0.09
2023-02-22T02:59:32.922Z,0.09
2023-02-22T03:00:33.503Z,0.09
2023-02-22T03:01:34.131Z,0.09
2023-02-22T03:02:34.116Z,0.09
2023-02-22T03:03:34.133Z,0.09
2023-02-22T03:04:34.795Z,0.09
2023-02-22T03:05:35.495Z,0.09
2023-02-22T03:06:36.157Z,0.09
2023-02-22T03:07:36.948Z,0.09
2023-02-22T03:08:37.626Z,0.09
2023-02-22T03:09:38.320Z,0.09
2023-02-22T03:10:39.006Z,0.09
2023-02-22T03:11:39.606Z,0.09
2023-02-22T03:12:40.468Z,0.09
2023-02-22T03:13:41.178Z,0.09
2023-02-22T03:14:41.832Z,0.09
2023-02-22T03:15:42.682Z,0.09
2023-02-22T03:16:43.524Z,0.09
2023-02-22T03:17:43.741Z,0.09
2023-02-22T03:18:43.818Z,0.09
2023-02-22T03:19:44.205Z,0.09
2023-02-22T03:20:45.018Z,0.09
2023-02-22T03:21:45.597Z,0.09
2023-02-22T03:22:46.077Z,0.09
2023-02-22T03:23:47.022Z,0.09
2023-02-22T03:24:47.977Z,0.09
2023-02-22T03:25:48.622Z,0.09
2023-02-22T03:26:49.185Z,0.09
2023-02-22T03:27:49.942Z,0.09
2023-02-22T03:28:50.806Z,0.09
2023-02-22T03:29:51.469Z,0.09
2023-02-22T03:30:51.515Z,0.09
2023-02-22T03:31:52.209Z,0.09
2023-02-22T03:32:00.933Z,0.09
2023-02-22T03:33:01.806Z,0.09
2023-02-22T03:34:02.528Z,0.09
2023-02-22T03:35:03.145Z,0.09
2023-02-22T03:36:03.856Z,0.09
2023-02-22T03:37:04.827Z,0.09
2023-02-22T03:38:05.564Z,0.09
2023-02-22T03:39:05.681Z,0.09
2023-02-22T03:40:06.482Z,0.09
2023-02-22T03:41:06.439Z,0.09
2023-02-22T03:42:07.119Z,0.09
2023-02-22T03:43:07.950Z,0.09
2023-02-22T03:44:08.567Z,0.09
2023-02-22T03:45:09.205Z,0.09
2023-02-22T03:46:09.984Z,0.09
2023-02-22T03:47:10.304Z,0.09
2023-02-22T03:48:10.543Z,0.09
2023-02-22T03:49:11.086Z,0.09
2023-02-22T03:50:11.757Z,0.09
2023-02-22T03:51:12.933Z,0.09
2023-02-22T03:52:13.142Z,0.13
2023-02-22T03:53:13.258Z,0.09
2023-02-22T03:54:13.957Z,0.09
2023-02-22T03:55:14.726Z,0.09
2023-02-22T03:56:15.396Z,0.09
2023-02-22T03:57:16.096Z,0.09
2023-02-22T03:58:16.681Z,0.13
2023-02-22T03:59:17.366Z,0.09
2023-02-22T04:00:17.425Z,0.09
2023-02-22T04:01:18.480Z,0.09
2023-02-22T04:02:18.998Z,0.13
2023-02-22T04:03:19.121Z,0.09
2023-02-22T04:04:20.007Z,0.13
2023-02-22T04:05:20.169Z,0.09
2023-02-22T04:06:20.303Z,0.09
2023-02-22T04:07:21.171Z,0.09
2023-02-22T04:08:21.264Z,0.09
2023-02-22T04:09:22.216Z,0.09
2023-02-22T04:09:31.836Z,0.09
2023-02-22T04:10:32.692Z,0.09
2023-02-22T04:11:33.241Z,0.09
2023-02-22T04:12:34.045Z,0.09
2023-02-22T04:13:34.927Z,0.09
2023-02-22T04:14:34.916Z,0.09
2023-02-22T04:15:35.823Z,0.09
2023-02-22T04:16:36.577Z,0.09
2023-02-22T04:17:37.466Z,0.13
2023-02-22T04:18:38.370Z,0.09
2023-02-22T04:19:39.194Z,0.09
2023-02-22T04:20:40.030Z,0.09
2023-02-22T04:21:40.922Z,0.09
2023-02-22T04:22:41.714Z,0.09
2023-02-22T04:23:41.973Z,0.09
2023-02-22T04:24:42.680Z,0.09
2023-02-22T04:25:43.686Z,0.09
2023-02-22T04:26:44.491Z,0.09
2023-02-22T04:27:45.347Z,0.09
2023-02-22T04:28:45.390Z,0.09
2023-02-22T04:29:46.052Z,0.09
2023-02-22T04:30:46.943Z,0.09
2023-02-22T04:31:47.952Z,0.09
2023-02-22T04:32:48.905Z,0.09
2023-02-22T04:33:49.818Z,0.09
2023-02-22T04:34:50.763Z,0.09
2023-02-22T04:35:50.785Z,0.09
2023-02-22T04:36:51.776Z,0.09
2023-02-22T04:37:52.537Z,0.09
2023-02-22T04:38:53.136Z,0.09
2023-02-22T04:39:53.674Z,0.09
2023-02-22T04:40:54.116Z,0.09
2023-02-22T04:41:54.631Z,0.09
2023-02-22T04:42:54.640Z,0.09
2023-02-22T04:43:54.961Z,0.09
2023-02-22T04:44:05.225Z,0.09
2023-02-22T04:45:06.131Z,0.09
2023-02-22T04:46:06.875Z,0.09
2023-02-22T04:47:07.044Z,0.09
2023-02-22T04:48:07.479Z,0.09
2023-02-22T04:49:08.183Z,0.09
2023-02-22T04:50:08.827Z,0.09
2023-02-22T04:51:09.223Z,0.09
2023-02-22T04:52:09.818Z,0.09
2023-02-22T04:53:10.313Z,0.09
2023-02-22T04:54:11.180Z,0.09
2023-02-22T04:55:11.951Z,0.09
2023-02-22T04:56:12.810Z,0.09
2023-02-22T04:57:13.456Z,0.09
2023-02-22T04:58:14.051Z,0.09
2023-02-22T04:59:14.349Z,0.09
2023-02-22T05:00:15.074Z,0.09
2023-02-22T05:01:15.633Z,0.09
2023-02-22T05:02:15.245Z,0.09
2023-02-22T05:03:15.378Z,0.09
2023-02-22T05:04:15.509Z,0.09
2023-02-22T05:05:16.199Z,0.09
2023-02-22T05:06:16.813Z,0.09
2023-02-22T05:07:17.445Z,0.09
2023-02-22T05:08:18.401Z,0.09
2023-02-22T05:09:19.022Z,0.09
2023-02-22T05:10:19.817Z,0.09
2023-02-22T05:11:20.314Z,0.09
2023-02-22T05:12:20.972Z,0.09
2023-02-22T05:13:21.848Z,0.09
2023-02-22T05:14:22.384Z,0.09
2023-02-22T05:15:23.200Z,0.09
2023-02-22T05:16:23.588Z,0.09
2023-02-22T05:17:23.607Z,0.09
2023-02-22T05:18:24.454Z,0.09
2023-02-22T05:18:36.183Z,0.09
2023-02-22T05:19:37.084Z,0.09
2023-02-22T05:20:37.775Z,0.09
2023-02-22T05:21:38.636Z,0.09
2023-02-22T05:22:39.336Z,0.09
2023-02-22T05:23:41.200Z,0.09
2023-02-22T05:24:40.983Z,0.09
2023-02-22T05:25:41.887Z,0.09
2023-02-22T05:26:42.264Z,0.09
2023-02-22T05:27:43.128Z,0.09
2023-02-22T05:28:44.026Z,0.09
2023-02-22T05:29:44.948Z,0.09
2023-02-22T05:30:45.911Z,0.09
2023-02-22T05:31:46.619Z,0.09
2023-02-22T05:32:47.269Z,0.09
2023-02-22T05:33:47.598Z,0.09
2023-02-22T05:34:47.617Z,0.09
2023-02-22T05:35:48.302Z,0.09
2023-02-22T05:36:49.112Z,0.09
2023-02-22T05:37:49.795Z,0.09
2023-02-22T05:38:49.991Z,0.09
2023-02-22T05:39:50.953Z,0.09
2023-02-22T05:40:51.680Z,0.09
2023-02-22T05:41:52.702Z,0.13
2023-02-22T05:42:53.667Z,0.13
2023-02-22T05:43:54.512Z,0.09
2023-02-22T05:44:54.590Z,0.09
2023-02-22T05:45:55.533Z,0.09
2023-02-22T05:46:55.933Z,0.09
2023-02-22T05:47:56.537Z,0.13
2023-02-22T05:48:57.206Z,0.13
2023-02-22T05:49:57.945Z,0.13
2023-02-22T05:50:58.421Z,0.13
2023-02-22T05:51:59.171Z,0.13
2023-02-22T05:52:08.859Z,0.13
2023-02-22T05:53:09.096Z,0.13
2023-02-22T05:54:09.649Z,0.13
2023-02-22T05:55:09.761Z,0.13
2023-02-22T05:56:10.229Z,0.13
2023-02-22T05:57:11.100Z,0.13
2023-02-22T05:58:11.862Z,0.13
2023-02-22T05:59:12.501Z,0.13
2023-02-22T06:00:13.301Z,0.13
2023-02-22T06:01:14.210Z,0.13
2023-02-22T06:02:14.777Z,0.13
2023-02-22T06:03:15.453Z,0.13
2023-02-22T06:04:16.331Z,0.13
2023-02-22T06:05:16.458Z,0.13
2023-02-22T06:06:17.059Z,0.16
2023-02-22T06:07:17.970Z,0.13
2023-02-22T06:08:18.351Z,0.13
2023-02-22T06:09:18.786Z,0.13
2023-02-22T06:10:19.585Z,0.13
2023-02-22T06:11:20.454Z,0.13
2023-02-22T06:12:21.357Z,0.13
2023-02-22T06:13:21.377Z,0.13
2023-02-22T06:14:22.171Z,0.13
2023-02-22T06:15:22.042Z,0.16
2023-02-22T06:16:22.847Z,0.13
2023-02-22T06:17:23.866Z,0.13
2023-02-22T06:18:23.625Z,0.13
2023-02-22T06:19:23.631Z,0.13
2023-02-22T06:20:24.404Z,0.16
2023-02-22T06:21:24.575Z,0.16
2023-02-22T06:22:25.558Z,0.16
2023-02-22T06:23:26.155Z,0.16
2023-02-22T06:24:26.624Z,0.16
2023-02-22T06:25:27.163Z,0.16
2023-02-22T06:25:35.812Z,0.16
2023-02-22T06:26:35.939Z,0.16
2023-02-22T06:27:36.362Z,0.16
2023-02-22T06:28:36.142Z,0.16
2023-02-22T06:29:36.880Z,0.16
2023-02-22T06:30:37.798Z,0.16
2023-02-22T06:31:38.638Z,0.23
2023-02-22T06:32:39.343Z,0.23
2023-02-22T06:33:40.221Z,0.23
2023-02-22T06:34:41.012Z,0.23
2023-02-22T06:35:41.981Z,0.23
2023-02-22T06:36:41.993Z,0.16
2023-02-22T06:37:42.415Z,0.16
2023-02-22T06:38:42.441Z,0.16
2023-02-22T06:39:43.249Z,0.23
2023-02-22T06:40:44.181Z,0.23
2023-02-22T06:41:44.783Z,0.23
2023-02-22T06:42:45.863Z,0.23
2023-02-22T06:43:46.428Z,0.23
2023-02-22T06:44:46.491Z,0.23
2023-02-22T06:45:46.747Z,0.23
2023-02-22T06:46:47.584Z,0.23
2023-02-22T06:47:47.620Z,0.23
2023-02-22T06:48:48.530Z,0.23
2023-02-22T06:49:48.979Z,0.23
2023-02-22T06:50:49.018Z,0.23
2023-02-22T06:51:49.596Z,0.23
2023-02-22T06:52:50.281Z,0.27
2023-02-22T06:53:51.106Z,0.27
2023-02-22T06:54:52.032Z,0.27
2023-02-22T06:55:52.999Z,0.27
2023-02-22T06:56:53.966Z,0.27
2023-02-22T06:57:03.695Z,0.27
2023-02-22T06:58:03.754Z,0.27
2023-02-22T06:59:04.510Z,0.27
2023-02-22T07:00:05.432Z,0.27
2023-02-22T07:01:05.900Z,0.27
2023-02-22T07:02:06.502Z,0.27
2023-02-22T07:03:07.412Z,0.27
2023-02-22T07:04:07.896Z,0.27
2023-02-22T07:05:08.587Z,0.27
2023-02-22T07:06:09.439Z,0.27
2023-02-22T07:07:09.771Z,0.27
2023-02-22T07:08:10.624Z,0.27
2023-02-22T07:09:11.260Z,0.27
2023-02-22T07:10:11.572Z,0.27
2023-02-22T07:11:12.462Z,0.27
2023-02-22T07:12:12.853Z,0.27
2023-02-22T07:13:13.104Z,0.31
2023-02-22T07:14:13.351Z,0.31
2023-02-22T07:15:14.688Z,0.31
2023-02-22T07:16:14.367Z,0.31
2023-02-22T07:17:14.852Z,0.31
2023-02-22T07:18:15.272Z,0.31
2023-02-22T07:19:15.611Z,0.31
2023-02-22T07:20:15.632Z,0.31
2023-02-22T07:21:16.979Z,0.31
2023-02-22T07:22:17.506Z,0.27
2023-02-22T07:23:18.177Z,0.31
2023-02-22T07:24:18.210Z,0.31
2023-02-22T07:25:18.224Z,0.31
2023-02-22T07:26:19.097Z,0.31
2023-02-22T07:27:19.821Z,0.31
2023-02-22T07:28:20.748Z,0.34
2023-02-22T07:28:30.437Z,0.31
2023-02-22T07:29:31.174Z,0.34
2023-02-22T07:30:31.974Z,0.34
2023-02-22T07:31:32.170Z,0.34
2023-02-22T07:32:32.978Z,0.34
2023-02-22T07:33:33.458Z,0.31
2023-02-22T07:34:34.424Z,0.38
2023-02-22T07:35:34.532Z,0.34
2023-02-22T07:36:35.543Z,0.34
2023-02-22T07:37:36.539Z,0.34
2023-02-22T07:38:36.548Z,0.34
2023-02-22T07:39:37.266Z,0.34
2023-02-22T07:40:37.385Z,0.34
2023-02-22T07:41:38.057Z,0.34
2023-02-22T07:42:38.783Z,0.34
2023-02-22T07:43:39.532Z,0.34
2023-02-22T07:44:39.783Z,0.34
2023-02-22T07:45:40.749Z,0.38
2023-02-22T07:46:41.497Z,0.38
2023-02-22T07:47:41.989Z,0.38
2023-02-22T07:48:42.818Z,0.38
2023-02-22T07:49:43.658Z,0.38
2023-02-22T07:50:44.295Z,0.38
2023-02-22T07:51:45.163Z,0.38
2023-02-22T07:52:45.918Z,0.38
2023-02-22T07:53:46.687Z,0.38
2023-02-22T07:54:47.493Z,0.38
2023-02-22T07:55:48.223Z,0.38
2023-02-22T07:56:49.051Z,0.38
2023-02-22T07:57:49.579Z,0.38
2023-02-22T07:58:49.845Z,0.45
2023-02-22T07:59:49.868Z,0.38
2023-02-22T08:00:50.180Z,0.38
2023-02-22T08:01:50.276Z,0.38
2023-02-22T08:01:59.021Z,0.38
2023-02-22T08:02:59.359Z,0.38
2023-02-22T08:04:00.162Z,0.38
2023-02-22T08:05:00.819Z,0.38
2023-02-22T08:06:01.565Z,0.41
2023-02-22T08:07:02.209Z,0.41
2023-02-22T08:08:03.198Z,0.41
2023-02-22T08:09:04.252Z,0.41
2023-02-22T08:10:04.725Z,0.41
2023-02-22T08:11:04.842Z,0.41
2023-02-22T08:12:05.702Z,0.41
2023-02-22T08:13:06.465Z,0.41
2023-02-22T08:14:07.214Z,0.41
2023-02-22T08:15:07.901Z,0.41
2023-02-22T08:16:08.218Z,0.41
2023-02-22T08:17:09.003Z,0.41
2023-02-22T08:18:09.197Z,0.41
2023-02-22T08:19:09.249Z,0.45
2023-02-22T08:20:10.105Z,0.41
2023-02-22T08:21:10.807Z,0.41
2023-02-22T08:22:11.484Z,0.41
2023-02-22T08:23:11.537Z,0.41
2023-02-22T08:24:11.875Z,0.41
2023-02-22T08:25:12.724Z,0.41
2023-02-22T08:26:13.223Z,0.41
2023-02-22T08:27:13.838Z,0.41
2023-02-22T08:28:14.511Z,0.41
2023-02-22T08:29:15.318Z,0.41
2023-02-22T08:30:16.043Z,0.41
2023-02-22T08:31:17.326Z,0.41
2023-02-22T08:32:17.622Z,0.41
2023-02-22T08:33:18.177Z,0.41
2023-02-22T08:34:18.752Z,0.45
2023-02-22T08:35:19.375Z,0.45
2023-02-22T08:35:30.954Z,0.41
2023-02-22T08:36:31.541Z,0.45
2023-02-22T08:37:32.413Z,0.45
2023-02-22T08:38:33.268Z,0.45
2023-02-22T08:39:34.062Z,0.45
2023-02-22T08:40:34.536Z,0.45
2023-02-22T08:41:35.423Z,0.45
2023-02-22T08:42:35.948Z,0.45
2023-02-22T08:43:36.751Z,0.45
2023-02-22T08:44:37.747Z,0.45
2023-02-22T08:45:38.438Z,0.45
2023-02-22T08:46:38.814Z,0.48
2023-02-22T08:47:38.962Z,0.48
2023-02-22T08:48:39.123Z,0.52
2023-02-22T08:49:39.880Z,0.52
2023-02-22T08:50:40.499Z,0.48
2023-02-22T08:51:41.351Z,0.48
2023-02-22T08:52:41.967Z,0.48
2023-02-22T08:53:42.516Z,0.48
2023-02-22T08:54:42.791Z,0.48
2023-02-22T08:55:43.059Z,0.48
2023-02-22T08:56:43.218Z,0.48
2023-02-22T08:57:43.920Z,0.48
2023-02-22T08:58:44.762Z,0.48
2023-02-22T08:59:45.528Z,0.48
2023-02-22T09:00:46.500Z,0.48
2023-02-22T09:01:47.505Z,0.48
2023-02-22T09:02:50.242Z,0.55
2023-02-22T09:03:48.627Z,0.52
2023-02-22T09:04:48.626Z,0.48
2023-02-22T09:05:49.621Z,0.48
2023-02-22T09:06:50.329Z,0.59
2023-02-22T09:07:50.343Z,0.48
2023-02-22T09:07:59.487Z,0.48
2023-02-22T09:08:59.123Z,0.48
2023-02-22T09:09:59.717Z,0.48
2023-02-22T09:10:59.926Z,0.48
2023-02-22T09:12:00.946Z,0.48
2023-02-22T09:13:01.774Z,0.48
2023-02-22T09:14:02.294Z,0.52
2023-02-22T09:15:03.042Z,0.48
2023-02-22T09:16:03.000Z,0.48
2023-02-22T09:17:05.788Z,0.59
2023-02-22T09:18:04.636Z,0.52
2023-02-22T09:19:05.269Z,0.55
2023-02-22T09:20:06.238Z,0.59
2023-02-22T09:21:07.115Z,0.66
2023-02-22T09:22:07.425Z,0.48
2023-02-22T09:23:07.461Z,0.48
2023-02-22T09:24:07.553Z,0.55
2023-02-22T09:25:16.779Z,0.59
2023-02-22T09:26:08.898Z,0.55
2023-02-22T09:27:09.649Z,0.55
2023-02-22T09:28:09.854Z,0.55
2023-02-22T09:29:10.642Z,0.55
2023-02-22T09:30:10.782Z,0.66
2023-02-22T09:31:11.298Z,0.59
2023-02-22T09:32:12.471Z,0.59
2023-02-22T09:33:13.275Z,0.55
2023-02-22T09:34:13.137Z,0.52
2023-02-22T09:35:13.295Z,0.59
2023-02-22T09:36:13.472Z,0.59
2023-02-22T09:37:13.482Z,0.59
2023-02-22T09:38:13.746Z,0.66
2023-02-22T09:39:14.514Z,0.70
2023-02-22T09:39:24.490Z,0.66
2023-02-22T09:40:25.529Z,0.73
2023-02-22T09:41:25.343Z,0.70
2023-02-22T09:42:25.515Z,0.73
2023-02-22T09:43:25.811Z,0.84
2023-02-22T09:44:26.301Z,0.84
2023-02-22T09:45:27.212Z,0.88
2023-02-22T09:46:27.854Z,0.80
2023-02-22T09:47:27.978Z,0.84
2023-02-22T09:48:28.752Z,0.88
2023-02-22T09:49:28.742Z,0.84
2023-02-22T09:50:29.653Z,0.84
2023-02-22T09:51:31.572Z,0.88
2023-02-22T09:52:30.698Z,0.84
2023-02-22T09:53:31.726Z,0.84
2023-02-22T09:54:32.517Z,0.80
2023-02-22T09:55:32.666Z,0.80
2023-02-22T09:56:33.022Z,0.80
2023-02-22T09:57:33.798Z,0.88
2023-02-22T09:58:34.856Z,0.80
2023-02-22T09:59:34.605Z,0.80
2023-02-22T10:00:35.589Z,0.80
2023-02-22T10:01:36.333Z,0.80
2023-02-22T10:02:37.291Z,0.80
2023-02-22T10:03:38.307Z,0.80
2023-02-22T10:04:39.058Z,0.84
2023-02-22T10:05:39.994Z,0.80
2023-02-22T10:06:40.532Z,0.80
2023-02-22T10:07:41.229Z,0.80
2023-02-22T10:08:41.305Z,0.77
2023-02-22T10:09:41.532Z,0.77
2023-02-22T10:09:50.307Z,0.77
2023-02-22T10:10:50.354Z,0.77
2023-02-22T10:11:51.083Z,0.77
2023-02-22T10:12:51.738Z,0.80
2023-02-22T10:13:52.474Z,0.80
2023-02-22T10:14:53.470Z,0.73
2023-02-22T10:15:53.589Z,0.77
2023-02-22T10:16:54.367Z,0.80
2023-02-22T10:17:54.489Z,0.80
2023-02-22T10:18:55.271Z,0.84
2023-02-22T10:19:56.022Z,0.84
2023-02-22T10:20:56.781Z,0.80
2023-02-22T10:21:57.605Z,0.84
2023-02-22T10:22:58.406Z,0.80
2023-02-22T10:23:58.958Z,0.80
2023-02-22T10:24:59.626Z,0.80
2023-02-22T10:26:01.285Z,0.91
2023-02-22T10:27:01.100Z,0.84
2023-02-22T10:28:01.781Z,0.84
2023-02-22T10:29:02.631Z,0.84
2023-02-22T10:30:05.612Z,0.80
2023-02-22T10:31:02.866Z,0.80
2023-02-22T10:32:03.609Z,0.80
2023-02-22T10:33:04.176Z,0.80
2023-02-22T10:34:04.825Z,0.80
2023-02-22T10:35:05.544Z,0.84
2023-02-22T10:36:05.640Z,0.84
2023-02-22T10:37:05.768Z,0.84
2023-02-22T10:38:06.615Z,0.84
2023-02-22T10:39:07.388Z,0.84
2023-02-22T10:40:08.093Z,0.84
2023-02-22T10:41:08.894Z,0.84
2023-02-22T10:42:09.690Z,0.84
2023-02-22T10:42:18.884Z,0.84
2023-02-22T10:43:19.660Z,0.84
2023-02-22T10:44:20.662Z,0.88
2023-02-22T10:45:21.423Z,0.91
2023-02-22T10:46:22.460Z,0.91
2023-02-22T10:47:23.012Z,0.91
2023-02-22T10:48:23.732Z,0.91
2023-02-22T10:49:23.777Z,0.91
2023-02-22T10:50:24.417Z,0.91
2023-02-22T10:51:25.127Z,0.91
2023-02-22T10:52:26.152Z,0.91
2023-02-22T10:53:26.919Z,0.95
2023-02-22T10:54:27.905Z,0.91
2023-02-22T10:55:28.788Z,0.95
2023-02-22T10:56:29.743Z,0.91
2023-02-22T10:57:30.581Z,0.91
2023-02-22T10:58:31.442Z,0.91
2023-02-22T10:59:32.035Z,0.84
2023-02-22T11:00:32.830Z,0.84
2023-02-22T11:01:33.087Z,0.84
2023-02-22T11:02:33.682Z,0.84
2023-02-22T11:03:34.037Z,0.91
2023-02-22T11:04:34.938Z,0.95
2023-02-22T11:05:35.614Z,0.84
2023-02-22T11:06:36.354Z,0.84
2023-02-22T11:07:37.443Z,0.84
2023-02-22T11:08:37.676Z,0.80
2023-02-22T11:09:38.530Z,0.80
2023-02-22T11:10:39.316Z,0.80
2023-02-22T11:11:39.978Z,0.84
2023-02-22T11:12:40.567Z,0.84
2023-02-22T11:13:41.297Z,0.84
2023-02-22T11:14:41.962Z,0.80
2023-02-22T11:14:50.720Z,0.80
2023-02-22T11:15:51.415Z,0.84
2023-02-22T11:16:52.001Z,0.80
2023-02-22T11:17:52.773Z,0.80
2023-02-22T11:18:53.493Z,0.80
2023-02-22T11:19:54.264Z,0.77
2023-02-22T11:20:55.093Z,0.77
2023-02-22T11:21:55.272Z,0.77
2023-02-22T11:22:56.048Z,0.80
2023-02-22T11:23:56.687Z,0.84
2023-02-22T11:24:57.378Z,0.77
2023-02-22T11:25:57.992Z,0.84
2023-02-22T11:26:58.695Z,0.80
2023-02-22T11:27:58.881Z,0.80
2023-02-22T11:28:59.556Z,0.80
2023-02-22T11:30:00.249Z,0.80
2023-02-22T11:31:00.943Z,0.80
2023-02-22T11:32:01.620Z,0.80
2023-02-22T11:33:02.254Z,0.80
2023-02-22T11:34:03.008Z,0.80
2023-02-22T11:35:09.263Z,0.80
2023-02-22T11:36:03.970Z,0.80
2023-02-22T11:37:04.066Z,0.77
2023-02-22T11:38:04.274Z,0.77
2023-02-22T11:39:05.192Z,0.77
2023-02-22T11:40:05.276Z,0.77
2023-02-22T11:41:05.643Z,0.73
2023-02-22T11:42:06.433Z,0.77
2023-02-22T11:43:07.246Z,0.73
2023-02-22T11:44:07.294Z,0.73
2023-02-22T11:45:08.268Z,0.70
2023-02-22T11:46:08.715Z,0.70
2023-02-22T11:46:17.369Z,0.70
2023-02-22T11:47:18.294Z,0.70
2023-02-22T11:48:19.061Z,0.70
2023-02-22T11:49:19.926Z,0.70
2023-02-22T11:50:20.839Z,0.70
2023-02-22T11:51:21.730Z,0.70
2023-02-22T11:52:22.504Z,0.70
2023-02-22T11:53:23.182Z,0.70
2023-02-22T11:54:23.966Z,0.70
2023-02-22T11:55:41.276Z,0.70
2023-02-22T11:56:36.940Z,0.70
2023-02-22T11:57:25.471Z,0.70
2023-02-22T11:58:26.221Z,0.70
2023-02-22T11:59:27.061Z,0.70
2023-02-22T12:00:27.982Z,0.70
2023-02-22T12:01:28.118Z,0.73
2023-02-22T12:02:29.143Z,0.73
2023-02-22T12:03:29.296Z,0.73
2023-02-22T12:04:30.015Z,0.77
2023-02-22T12:05:30.456Z,0.77
2023-02-22T12:06:30.723Z,0.77
2023-02-22T12:07:31.555Z,0.80
2023-02-22T12:08:32.162Z,0.80
2023-02-22T12:09:33.028Z,0.80
2023-02-22T12:10:34.025Z,0.77
2023-02-22T12:11:34.678Z,0.77
2023-02-22T12:12:35.128Z,0.77
2023-02-22T12:13:36.029Z,0.77
2023-02-22T12:14:36.441Z,0.77
2023-02-22T12:15:37.297Z,0.77
2023-02-22T12:16:37.971Z,0.80
2023-02-22T12:17:39.080Z,0.84
2023-02-22T12:17:59.494Z,0.84
2023-02-22T12:18:50.798Z,0.84
2023-02-22T12:19:50.531Z,0.84
2023-02-22T12:20:50.651Z,0.98
2023-02-22T12:21:50.652Z,1.02
2023-02-22T12:22:51.400Z,1.09
2023-02-22T12:23:52.352Z,0.98
2023-02-22T12:25:00.714Z,0.95
2023-02-22T12:25:53.424Z,1.02
2023-02-22T12:26:54.261Z,0.95
2023-02-22T12:27:55.171Z,0.91
2023-02-22T12:28:56.112Z,0.95
2023-02-22T12:29:56.187Z,1.09
2023-02-22T12:30:56.948Z,1.02
2023-02-22T12:31:58.053Z,1.02
2023-02-22T12:32:57.300Z,1.02
2023-02-22T12:33:58.152Z,0.95
2023-02-22T12:34:59.089Z,0.91
2023-02-22T12:36:00.061Z,0.88
2023-02-22T12:37:00.976Z,0.95
2023-02-22T12:38:01.935Z,0.91
2023-02-22T12:39:02.195Z,0.91
2023-02-22T12:40:02.143Z,0.88
2023-02-22T12:41:02.147Z,0.84
2023-02-22T12:42:02.156Z,0.80
2023-02-22T12:43:02.880Z,0.80
2023-02-22T12:44:03.862Z,0.77
2023-02-22T12:45:06.978Z,0.77
2023-02-22T12:46:05.150Z,0.80
2023-02-22T12:47:05.696Z,0.77
2023-02-22T12:48:06.289Z,0.80
2023-02-22T12:49:07.249Z,0.80
2023-02-22T12:49:15.936Z,0.77
2023-02-22T12:50:16.824Z,0.77
2023-02-22T12:51:17.750Z,0.80
2023-02-22T12:53:18.393Z,0.80
2023-02-22T12:54:19.144Z,0.80
2023-02-22T12:55:20.075Z,0.80
2023-02-22T12:56:20.741Z,0.80
2023-02-22T12:57:20.970Z,0.70
2023-02-22T12:58:21.780Z,0.80
2023-02-22T12:59:22.703Z,0.80
2023-02-22T13:00:23.626Z,0.77
2023-02-22T13:01:23.824Z,0.80
2023-02-22T13:02:24.076Z,0.88
2023-02-22T13:03:24.849Z,0.88
2023-02-22T13:04:25.368Z,0.77
2023-02-22T13:05:26.417Z,0.80
2023-02-22T13:06:26.991Z,0.91
2023-02-22T13:07:27.929Z,0.91